Time;durP1;ratioP1;P1;durP2;ratioP2;P2;SDS_P1;SDS_P2;PMS_P1;PMS_P2;Temp;Humidity;BMP_temperature;BMP_pressure;BME280_temperature;BME280_humidity;BME280_pressure;Samples;Min_cycle;Max_cycle;Signal;HPM_P1;HPM_P2
2023/09/22 00:00:15;;;;;;;3.45;3.15;;;;;;;;;;5094691;28;20024;-69
2023/09/22 00:02:43;;;;;;;5.05;2.88;;;;;;;;;;5094134;28;20066;-69
2023/09/22 00:05:10;;;;;;;3.30;2.40;;;;;;;;;;5076688;28;20085;-69
2023/09/22 00:07:37;;;;;;;2.88;2.67;;;;;;;;;;5094135;28;20081;-69
2023/09/22 00:10:04;;;;;;;4.72;2.67;;;;;;;;;;5093813;28;20028;-70
2023/09/22 00:12:31;;;;;;;3.13;2.80;;;;;;;;;;5075551;28;20032;-69
2023/09/22 00:14:57;;;;;;;3.40;2.67;;;;;;;;;;5075670;28;20032;-70
2023/09/22 00:17:22;;;;;;;2.70;2.35;;;;;;;;;;5093796;28;20363;-69
2023/09/22 00:19:47;;;;;;;2.95;2.75;;;;;;;;;;5093699;28;20373;-70
2023/09/22 00:22:13;;;;;;;4.25;2.65;;;;;;;;;;5093652;28;20413;-69
2023/09/22 00:24:38;;;;;;;5.40;2.70;;;;;;;;;;5094376;28;20375;-69
2023/09/22 00:27:04;;;;;;;2.42;2.25;;;;;;;;;;5093995;28;20043;-69
2023/09/22 00:29:29;;;;;;;3.80;2.80;;;;;;;;;;5093940;28;20121;-69
2023/09/22 00:31:55;;;;;;;3.45;2.47;;;;;;;;;;5094288;28;20038;-69
2023/09/22 00:34:20;;;;;;;2.78;2.58;;;;;;;;;;5075454;28;20055;-68
2023/09/22 00:36:48;;;;;;;3.15;2.80;;;;;;;;;;5093932;28;20450;-68
2023/09/22 00:39:14;;;;;;;4.93;2.80;;;;;;;;;;5075487;28;20034;-67
2023/09/22 00:41:39;;;;;;;3.35;3.00;;;;;;;;;;5093538;28;20036;-61
2023/09/22 00:44:04;;;;;;;6.28;3.00;;;;;;;;;;5094000;28;20039;-61
2023/09/22 00:46:30;;;;;;;4.90;2.63;;;;;;;;;;5075311;28;20063;-61
2023/09/22 00:48:56;;;;;;;4.97;2.72;;;;;;;;;;5093880;28;20024;-61
2023/09/22 00:51:22;;;;;;;3.22;2.88;;;;;;;;;;5093970;28;20485;-67
2023/09/22 00:53:48;;;;;;;4.43;2.72;;;;;;;;;;5075492;28;20073;-68
2023/09/22 00:56:19;;;;;;;2.72;2.53;;;;;;;;;;5095969;28;20165;-67
2023/09/22 00:58:44;;;;;;;3.28;2.75;;;;;;;;;;5097206;28;20028;-67
2023/09/22 01:01:10;;;;;;;2.63;2.42;;;;;;;;;;5079319;28;20028;-67
2023/09/22 01:03:35;;;;;;;3.95;2.80;;;;;;;;;;5079773;28;20020;-67
2023/09/22 01:06:00;;;;;;;3.22;2.42;;;;;;;;;;5079622;28;20068;-67
2023/09/22 01:08:26;;;;;;;3.35;2.70;;;;;;;;;;5078970;28;20020;-67
2023/09/22 01:10:52;;;;;;;3.05;2.55;;;;;;;;;;5079410;28;20024;-67
2023/09/22 01:13:18;;;;;;;3.60;2.70;;;;;;;;;;5097719;28;20114;-67
2023/09/22 01:15:43;;;;;;;3.65;2.75;;;;;;;;;;5096626;28;20040;-67
2023/09/22 01:18:18;;;;;;;3.97;2.53;;;;;;;;;;5097278;28;20078;-67
2023/09/22 01:20:44;;;;;;;6.20;2.85;;;;;;;;;;5097066;28;20024;-67
2023/09/22 01:23:12;;;;;;;3.45;2.80;;;;;;;;;;5078678;28;20028;-67
2023/09/22 01:25:39;;;;;;;4.20;2.58;;;;;;;;;;5097158;28;20078;-67
2023/09/22 01:28:05;;;;;;;4.82;3.17;;;;;;;;;;5079095;28;20028;-63
2023/09/22 01:30:32;;;;;;;4.35;2.67;;;;;;;;;;5097279;28;20514;-62
2023/09/22 01:32:58;;;;;;;4.55;2.83;;;;;;;;;;5078822;28;20024;-61
2023/09/22 01:35:23;;;;;;;3.42;2.88;;;;;;;;;;5097372;28;20107;-61
2023/09/22 01:37:57;;;;;;;5.78;2.83;;;;;;;;;;5096475;28;20020;-61
2023/09/22 01:40:23;;;;;;;3.22;2.92;;;;;;;;;;5097003;28;20587;-66
2023/09/22 01:42:48;;;;;;;3.50;2.25;;;;;;;;;;5078994;28;20077;-67
2023/09/22 01:45:14;;;;;;;2.88;2.58;;;;;;;;;;5078267;28;20481;-67
2023/09/22 01:47:42;;;;;;;2.65;2.45;;;;;;;;;;5096841;28;20114;-67
2023/09/22 01:50:08;;;;;;;3.33;2.38;;;;;;;;;;5096276;28;20063;-67
2023/09/22 01:52:34;;;;;;;2.63;2.30;;;;;;;;;;5096543;28;20056;-67
2023/09/22 01:54:59;;;;;;;2.08;1.98;;;;;;;;;;5078397;28;20066;-69
2023/09/22 01:57:25;;;;;;;3.33;2.25;;;;;;;;;;5096933;28;20024;-69
2023/09/22 01:59:50;;;;;;;4.05;2.28;;;;;;;;;;5078645;28;20031;-69
2023/09/22 02:02:17;;;;;;;3.90;2.47;;;;;;;;;;5096620;28;20027;-70
2023/09/22 02:04:42;;;;;;;3.30;3.00;;;;;;;;;;5078045;28;20027;-70
2023/09/22 02:07:08;;;;;;;3.33;2.45;;;;;;;;;;5094960;28;20118;-70
2023/09/22 02:09:33;;;;;;;3.47;2.00;;;;;;;;;;5096311;28;20032;-70
2023/09/22 02:11:59;;;;;;;2.35;1.88;;;;;;;;;;5096126;28;20040;-70
2023/09/22 02:14:24;;;;;;;6.53;2.10;;;;;;;;;;5096027;28;20097;-70
2023/09/22 02:16:50;;;;;;;2.22;2.10;;;;;;;;;;5096530;28;20083;-69
2023/09/22 02:19:16;;;;;;;5.82;2.65;;;;;;;;;;5096153;28;20028;-69
2023/09/22 02:21:41;;;;;;;2.20;2.08;;;;;;;;;;5095631;28;20053;-69
2023/09/22 02:24:07;;;;;;;2.58;2.08;;;;;;;;;;5095806;28;20019;-69
2023/09/22 02:26:33;;;;;;;3.50;2.33;;;;;;;;;;5095744;28;20109;-69
2023/09/22 02:28:58;;;;;;;2.78;2.58;;;;;;;;;;5077356;28;20031;-68
2023/09/22 02:31:26;;;;;;;3.45;2.60;;;;;;;;;;5095624;28;20082;-69
2023/09/22 02:33:52;;;;;;;2.10;1.90;;;;;;;;;;5077986;28;20059;-69
2023/09/22 02:36:17;;;;;;;3.75;2.40;;;;;;;;;;5095583;28;20055;-70
2023/09/22 02:38:43;;;;;;;3.90;2.50;;;;;;;;;;5095265;28;20017;-70
2023/09/22 02:41:09;;;;;;;4.00;2.60;;;;;;;;;;5077381;28;20030;-69
2023/09/22 02:43:35;;;;;;;2.70;2.50;;;;;;;;;;5077121;28;20016;-69
2023/09/22 02:46:03;;;;;;;3.58;2.50;;;;;;;;;;5077628;28;20381;-69
2023/09/22 02:48:29;;;;;;;2.47;2.28;;;;;;;;;;5077351;28;20063;-69
2023/09/22 02:50:54;;;;;;;3.03;2.53;;;;;;;;;;5095891;28;20051;-69
2023/09/22 02:53:20;;;;;;;2.92;2.70;;;;;;;;;;5095718;28;20518;-68
2023/09/22 02:55:46;;;;;;;2.40;2.25;;;;;;;;;;5076830;28;20148;-69
2023/09/22 02:58:12;;;;;;;4.07;2.30;;;;;;;;;;5060320;28;20067;-69
2023/09/22 03:00:42;;;;;;;2.65;2.45;;;;;;;;;;5094685;28;20035;-70
2023/09/22 03:03:10;;;;;;;4.72;3.08;;;;;;;;;;5084958;28;20027;-70
2023/09/22 03:05:36;;;;;;;7.32;2.83;;;;;;;;;;5094643;28;20106;-70
2023/09/22 03:08:04;;;;;;;2.65;2.45;;;;;;;;;;5084659;28;20166;-70
2023/09/22 03:10:30;;;;;;;2.30;2.10;;;;;;;;;;5084785;28;20051;-67
2023/09/22 03:12:57;;;;;;;4.65;2.22;;;;;;;;;;5086755;28;20116;-60
2023/09/22 03:15:23;;;;;;;3.35;2.55;;;;;;;;;;5084452;28;20064;-60
2023/09/22 03:17:48;;;;;;;3.28;2.80;;;;;;;;;;5084349;28;20031;-60
2023/09/22 03:20:15;;;;;;;3.70;2.25;;;;;;;;;;5084450;28;20031;-63
2023/09/22 03:22:40;;;;;;;3.10;2.83;;;;;;;;;;5084528;28;20496;-62
2023/09/22 03:25:10;;;;;;;3.05;2.35;;;;;;;;;;5084555;28;20036;-62
2023/09/22 03:27:38;;;;;;;3.53;2.72;;;;;;;;;;5082630;28;20043;-62
2023/09/22 03:30:06;;;;;;;2.80;2.60;;;;;;;;;;5081818;28;20505;-62
2023/09/22 03:32:32;;;;;;;3.00;2.80;;;;;;;;;;5094032;28;20024;-60
2023/09/22 03:34:58;;;;;;;3.47;2.88;;;;;;;;;;5082457;28;20027;-62
2023/09/22 03:37:28;;;;;;;3.58;2.47;;;;;;;;;;5084152;28;20024;-64
2023/09/22 03:39:54;;;;;;;3.85;2.40;;;;;;;;;;5091474;28;20030;-64
2023/09/22 03:42:20;;;;;;;6.25;2.55;;;;;;;;;;5082463;28;20031;-65
2023/09/22 03:44:45;;;;;;;2.90;2.50;;;;;;;;;;5083317;28;20004;-62
2023/09/22 03:47:11;;;;;;;2.70;2.50;;;;;;;;;;5084078;28;20062;-62
2023/09/22 03:49:36;;;;;;;2.92;2.67;;;;;;;;;;5093662;28;20093;-62
2023/09/22 03:52:02;;;;;;;6.15;2.75;;;;;;;;;;5100963;28;20027;-66
2023/09/22 03:54:27;;;;;;;2.60;2.40;;;;;;;;;;5083549;28;20111;-66
2023/09/22 03:56:53;;;;;;;5.20;2.83;;;;;;;;;;5094388;28;20429;-68
2023/09/22 03:59:18;;;;;;;4.80;2.75;;;;;;;;;;5107687;28;20020;-60
2023/09/22 04:01:45;;;;;;;5.07;2.92;;;;;;;;;;5092592;28;20039;-60
2023/09/22 04:04:11;;;;;;;5.38;3.22;;;;;;;;;;5074907;28;20157;-60
2023/09/22 04:06:36;;;;;;;5.40;3.00;;;;;;;;;;5075754;28;20468;-61
2023/09/22 04:09:02;;;;;;;3.45;2.42;;;;;;;;;;5093818;28;20030;-61
2023/09/22 04:11:28;;;;;;;5.57;2.67;;;;;;;;;;5094197;28;20447;-61
2023/09/22 04:13:53;;;;;;;5.28;3.10;;;;;;;;;;5093382;28;20040;-61
2023/09/22 04:16:19;;;;;;;3.65;3.00;;;;;;;;;;5075622;28;20089;-61
2023/09/22 04:18:46;;;;;;;9.63;3.22;;;;;;;;;;5093775;28;20062;-67
2023/09/22 04:21:12;;;;;;;5.68;3.30;;;;;;;;;;5093534;28;20085;-67
2023/09/22 04:23:44;;;;;;;4.93;3.20;;;;;;;;;;5075470;28;20043;-67
2023/09/22 04:26:10;;;;;;;7.32;3.17;;;;;;;;;;5058921;28;20070;-67
2023/09/22 04:28:36;;;;;;;4.30;3.30;;;;;;;;;;5114714;28;20051;-66
2023/09/22 04:31:01;;;;;;;3.70;3.33;;;;;;;;;;5116338;28;20063;-66
2023/09/22 04:33:27;;;;;;;3.45;2.95;;;;;;;;;;5118696;28;20078;-66
2023/09/22 04:35:52;;;;;;;3.47;3.17;;;;;;;;;;5118282;28;20035;-66
2023/09/22 04:38:18;;;;;;;3.30;3.00;;;;;;;;;;5118571;28;20076;-66
2023/09/22 04:40:44;;;;;;;6.72;3.40;;;;;;;;;;5118187;28;20059;-66
2023/09/22 04:43:13;;;;;;;5.70;3.60;;;;;;;;;;5117894;28;20032;-66
2023/09/22 04:45:40;;;;;;;4.05;3.53;;;;;;;;;;5118345;28;20030;-62
2023/09/22 04:48:06;;;;;;;4.45;3.33;;;;;;;;;;5102189;28;20106;-62
2023/09/22 04:50:32;;;;;;;3.85;3.42;;;;;;;;;;5097916;28;20031;-64
2023/09/22 04:52:58;;;;;;;4.28;3.35;;;;;;;;;;5097386;28;20405;-64
2023/09/22 04:55:23;;;;;;;8.35;3.78;;;;;;;;;;5097851;28;20522;-63
2023/09/22 04:57:51;;;;;;;5.50;3.60;;;;;;;;;;5097804;28;20054;-63
2023/09/22 05:00:16;;;;;;;4.72;3.50;;;;;;;;;;5080065;28;20031;-63
2023/09/22 05:02:43;;;;;;;7.55;3.65;;;;;;;;;;5097791;28;20036;-62
2023/09/22 05:05:09;;;;;;;5.15;3.60;;;;;;;;;;5096310;28;20447;-62
2023/09/22 05:07:35;;;;;;;4.32;3.30;;;;;;;;;;5096782;28;20024;-62
2023/09/22 05:10:00;;;;;;;5.65;3.90;;;;;;;;;;5078322;28;20069;-67
2023/09/22 05:12:26;;;;;;;4.53;3.70;;;;;;;;;;5096549;28;20038;-63
2023/09/22 05:14:52;;;;;;;4.50;4.05;;;;;;;;;;5096024;28;20123;-63
2023/09/22 05:17:18;;;;;;;4.47;3.70;;;;;;;;;;5096378;28;20020;-68
2023/09/22 05:19:44;;;;;;;5.00;2.78;;;;;;;;;;5096166;28;20127;-68
2023/09/22 05:22:10;;;;;;;3.95;3.60;;;;;;;;;;5096365;28;20496;-68
2023/09/22 05:24:36;;;;;;;4.55;3.78;;;;;;;;;;5097222;28;20038;-68
2023/09/22 05:27:04;;;;;;;5.63;3.47;;;;;;;;;;5078987;28;20145;-69
2023/09/22 05:29:29;;;;;;;5.80;3.47;;;;;;;;;;5095410;28;20068;-69
2023/09/22 05:31:55;;;;;;;5.88;3.67;;;;;;;;;;5096387;28;20058;-63
2023/09/22 05:34:20;;;;;;;7.13;3.47;;;;;;;;;;5096713;28;20060;-68
2023/09/22 05:36:46;;;;;;;6.13;3.90;;;;;;;;;;5096846;28;20016;-68
2023/09/22 05:39:12;;;;;;;7.47;3.95;;;;;;;;;;5096565;28;20425;-68
2023/09/22 05:41:38;;;;;;;5.25;3.58;;;;;;;;;;5095318;28;20122;-68
2023/09/22 05:44:04;;;;;;;3.50;3.30;;;;;;;;;;5095095;28;20025;-67
2023/09/22 05:46:31;;;;;;;5.90;3.70;;;;;;;;;;5077257;28;20385;-67
2023/09/22 05:48:57;;;;;;;3.88;3.50;;;;;;;;;;5095327;28;20024;-67
2023/09/22 05:51:24;;;;;;;6.15;3.08;;;;;;;;;;5077172;28;20386;-67
2023/09/22 05:53:52;;;;;;;5.78;3.58;;;;;;;;;;5095911;28;20466;-67
2023/09/22 05:56:18;;;;;;;4.75;3.20;;;;;;;;;;5094811;28;20078;-67
2023/09/22 05:58:44;;;;;;;2.92;2.72;;;;;;;;;;5094163;28;20045;-67
2023/09/22 06:01:09;;;;;;;5.95;3.13;;;;;;;;;;5075969;28;20047;-67
2023/09/22 06:03:38;;;;;;;5.07;3.60;;;;;;;;;;5075941;28;20217;-67
2023/09/22 06:06:04;;;;;;;5.13;3.60;;;;;;;;;;5075901;28;20027;-67
2023/09/22 06:08:30;;;;;;;5.35;3.55;;;;;;;;;;5094678;28;20058;-67
2023/09/22 06:10:56;;;;;;;5.80;3.33;;;;;;;;;;5095774;28;20024;-67
2023/09/22 06:13:22;;;;;;;4.13;3.72;;;;;;;;;;5095988;28;20040;-67
2023/09/22 06:15:48;;;;;;;6.72;3.70;;;;;;;;;;5075397;28;20051;-67
2023/09/22 06:18:15;;;;;;;4.95;3.92;;;;;;;;;;5077612;28;20032;-67
2023/09/22 06:20:41;;;;;;;8.90;3.85;;;;;;;;;;5095748;28;20028;-67
2023/09/22 06:23:07;;;;;;;7.40;4.03;;;;;;;;;;5095993;28;20020;-67
2023/09/22 06:25:34;;;;;;;7.85;3.67;;;;;;;;;;5095654;28;20031;-67
2023/09/22 06:28:00;;;;;;;3.45;3.17;;;;;;;;;;5077340;28;20496;-67
2023/09/22 06:30:25;;;;;;;7.57;3.53;;;;;;;;;;5095556;28;20032;-67
2023/09/22 06:32:50;;;;;;;3.63;3.30;;;;;;;;;;5095498;28;20170;-67
2023/09/22 06:35:16;;;;;;;8.23;3.50;;;;;;;;;;5095374;28;20031;-67
2023/09/22 06:37:42;;;;;;;4.18;3.78;;;;;;;;;;5095692;28;20028;-67
2023/09/22 06:40:11;;;;;;;7.40;3.63;;;;;;;;;;5095367;28;20527;-67
2023/09/22 06:42:41;;;;;;;4.53;3.53;;;;;;;;;;5060821;28;20049;-67
2023/09/22 06:45:09;;;;;;;4.05;3.60;;;;;;;;;;5095563;28;20059;-67
2023/09/22 06:47:34;;;;;;;4.18;3.63;;;;;;;;;;5095480;28;20115;-67
2023/09/22 06:50:03;;;;;;;6.55;3.65;;;;;;;;;;5077404;28;20068;-66
2023/09/22 06:52:28;;;;;;;5.05;3.10;;;;;;;;;;5095006;28;20032;-67
2023/09/22 06:54:54;;;;;;;5.65;3.85;;;;;;;;;;5094741;28;20113;-67
2023/09/22 06:57:19;;;;;;;4.93;3.80;;;;;;;;;;5076989;28;20027;-67
2023/09/22 06:59:44;;;;;;;4.35;3.38;;;;;;;;;;5095246;28;20020;-67
2023/09/22 07:02:10;;;;;;;4.60;3.65;;;;;;;;;;5095494;28;20032;-67
2023/09/22 07:04:35;;;;;;;4.43;3.60;;;;;;;;;;5094856;28;20028;-67
2023/09/22 07:07:02;;;;;;;3.13;2.85;;;;;;;;;;5094827;28;20032;-67
2023/09/22 07:09:27;;;;;;;2.60;2.30;;;;;;;;;;5076695;28;20028;-66
2023/09/22 07:11:52;;;;;;;3.00;2.55;;;;;;;;;;5094676;28;20027;-67
2023/09/22 07:14:18;;;;;;;3.58;2.58;;;;;;;;;;5094463;28;20036;-66
2023/09/22 07:16:44;;;;;;;2.10;1.90;;;;;;;;;;5094580;28;20466;-66
2023/09/22 07:19:10;;;;;;;1.65;1.52;;;;;;;;;;5094572;28;20019;-67
2023/09/22 07:21:35;;;;;;;2.47;1.75;;;;;;;;;;5094520;28;20385;-67
2023/09/22 07:24:01;;;;;;;4.13;2.40;;;;;;;;;;5076470;28;20039;-67
2023/09/22 07:26:26;;;;;;;3.53;1.73;;;;;;;;;;5095063;28;20055;-67
2023/09/22 07:28:51;;;;;;;2.60;1.70;;;;;;;;;;5094744;28;20028;-67
2023/09/22 07:31:20;;;;;;;2.50;1.70;;;;;;;;;;5094718;28;20043;-67
2023/09/22 07:33:46;;;;;;;1.63;1.30;;;;;;;;;;5094388;28;20059;-67
2023/09/22 07:36:11;;;;;;;1.90;1.50;;;;;;;;;;5094256;28;20489;-67
2023/09/22 07:38:37;;;;;;;2.53;1.58;;;;;;;;;;5094340;28;20377;-66
2023/09/22 07:41:03;;;;;;;2.95;1.58;;;;;;;;;;5093016;28;20032;-67
2023/09/22 07:43:29;;;;;;;2.58;1.60;;;;;;;;;;5094236;28;20027;-67
2023/09/22 07:45:58;;;;;;;2.53;1.38;;;;;;;;;;5094226;28;20422;-67
2023/09/22 07:48:24;;;;;;;1.60;1.50;;;;;;;;;;5094423;28;20127;-67
2023/09/22 07:50:50;;;;;;;4.07;1.52;;;;;;;;;;5094368;28;20482;-67
2023/09/22 07:53:16;;;;;;;0.90;0.77;;;;;;;;;;5094091;28;20032;-67
2023/09/22 07:55:41;;;;;;;1.77;1.65;;;;;;;;;;5093937;28;20480;-67
2023/09/22 07:58:06;;;;;;;3.70;1.75;;;;;;;;;;5094024;28;20031;-67
2023/09/22 08:00:32;;;;;;;2.55;1.83;;;;;;;;;;5094269;28;20134;-67
2023/09/22 08:02:59;;;;;;;1.95;1.80;;;;;;;;;;5076220;28;20085;-67
2023/09/22 08:05:25;;;;;;;1.20;1.10;;;;;;;;;;5092922;28;20462;-67
2023/09/22 08:07:50;;;;;;;1.77;1.55;;;;;;;;;;5093879;28;20020;-67
2023/09/22 08:10:17;;;;;;;0.80;0.80;;;;;;;;;;5094376;28;20036;-67
2023/09/22 08:12:43;;;;;;;4.32;1.92;;;;;;;;;;5075708;28;20058;-67
2023/09/22 08:15:09;;;;;;;2.05;1.17;;;;;;;;;;5093676;28;20044;-67
2023/09/22 08:17:34;;;;;;;1.50;1.40;;;;;;;;;;5094022;28;20070;-67
2023/09/22 08:20:00;;;;;;;2.78;1.75;;;;;;;;;;5094018;28;20036;-67
2023/09/22 08:22:26;;;;;;;4.10;2.10;;;;;;;;;;5093989;28;20036;-67
2023/09/22 08:24:52;;;;;;;2.25;1.30;;;;;;;;;;5093922;28;20028;-67
2023/09/22 08:27:17;;;;;;;1.90;1.70;;;;;;;;;;5093967;28;20032;-67
2023/09/22 08:29:42;;;;;;;3.28;1.90;;;;;;;;;;5094231;28;20028;-67
2023/09/22 08:32:08;;;;;;;2.83;1.73;;;;;;;;;;5093941;28;20158;-67
2023/09/22 08:34:34;;;;;;;2.63;1.92;;;;;;;;;;5075414;28;20454;-67
2023/09/22 08:37:00;;;;;;;2.53;1.75;;;;;;;;;;5093590;28;20032;-67
2023/09/22 08:39:25;;;;;;;2.08;1.50;;;;;;;;;;5093579;28;20042;-67
2023/09/22 08:41:50;;;;;;;1.83;1.50;;;;;;;;;;5093524;28;20032;-67
2023/09/22 08:44:16;;;;;;;2.58;1.70;;;;;;;;;;5093548;28;20020;-66
2023/09/22 08:46:42;;;;;;;0.95;0.93;;;;;;;;;;5093501;28;20077;-67
2023/09/22 08:49:08;;;;;;;2.38;1.55;;;;;;;;;;5092258;28;20016;-67
2023/09/22 08:51:34;;;;;;;3.85;1.88;;;;;;;;;;5093470;28;20103;-67
2023/09/22 08:54:00;;;;;;;1.60;1.50;;;;;;;;;;5093422;28;20028;-67
2023/09/22 08:56:25;;;;;;;1.65;1.50;;;;;;;;;;5093369;28;20123;-67
2023/09/22 08:58:51;;;;;;;3.40;1.73;;;;;;;;;;5075282;28;20013;-67
2023/09/22 09:01:16;;;;;;;1.38;1.27;;;;;;;;;;5093335;28;20057;-67
2023/09/22 09:03:42;;;;;;;1.65;1.42;;;;;;;;;;5075372;28;20020;-67
2023/09/22 09:06:08;;;;;;;3.25;1.48;;;;;;;;;;5093298;28;20370;-67
2023/09/22 09:08:34;;;;;;;1.60;1.50;;;;;;;;;;5092014;28;20111;-67
2023/09/22 09:11:04;;;;;;;2.90;1.90;;;;;;;;;;5075127;28;20481;-67
2023/09/22 09:13:29;;;;;;;1.85;1.75;;;;;;;;;;5093554;28;20032;-66
2023/09/22 09:15:57;;;;;;;4.15;1.70;;;;;;;;;;5093357;28;20079;-67
2023/09/22 09:18:24;;;;;;;1.63;1.52;;;;;;;;;;5097254;28;20136;-67
2023/09/22 09:21:06;;;;;;;1.65;1.55;;;;;;;;;;5097243;28;20103;-67
2023/09/22 09:23:32;;;;;;;1.17;0.93;;;;;;;;;;5097171;28;20024;-67
2023/09/22 09:25:58;;;;;;;2.33;1.67;;;;;;;;;;5078681;28;20070;-67
2023/09/22 09:28:24;;;;;;;2.10;1.67;;;;;;;;;;5096817;28;20055;-67
2023/09/22 09:30:51;;;;;;;2.00;1.70;;;;;;;;;;5097022;28;20513;-67
2023/09/22 09:33:21;;;;;;;18.67;1.35;;;;;;;;;;5096995;28;20032;-67
2023/09/22 09:35:46;;;;;;;14.25;1.98;;;;;;;;;;5096627;28;20027;-67
2023/09/22 09:38:12;;;;;;;3.17;1.70;;;;;;;;;;5078533;28;20027;-67
2023/09/22 09:40:38;;;;;;;2.88;1.58;;;;;;;;;;5096843;28;20024;-67
2023/09/22 09:43:10;;;;;;;1.13;0.98;;;;;;;;;;5096461;28;20023;-67
2023/09/22 09:45:40;;;;;;;2.30;1.90;;;;;;;;;;5078315;28;20047;-67
2023/09/22 09:48:09;;;;;;;1.98;1.50;;;;;;;;;;5097005;28;20028;-67
2023/09/22 09:50:35;;;;;;;3.63;1.85;;;;;;;;;;5096630;28;20413;-67
2023/09/22 09:53:05;;;;;;;1.48;1.38;;;;;;;;;;5078135;28;20032;-67
2023/09/22 09:55:32;;;;;;;2.25;1.90;;;;;;;;;;5096186;28;20032;-67
2023/09/22 09:57:59;;;;;;;3.30;1.70;;;;;;;;;;5094960;28;20028;-67
2023/09/22 10:00:26;;;;;;;4.63;1.48;;;;;;;;;;5078379;28;20085;-67
2023/09/22 10:02:52;;;;;;;1.73;1.60;;;;;;;;;;5096107;28;20462;-67
2023/09/22 10:05:18;;;;;;;2.95;1.80;;;;;;;;;;5096041;28;20107;-67
2023/09/22 10:07:44;;;;;;;3.28;1.70;;;;;;;;;;5094760;28;20454;-67
2023/09/22 10:10:14;;;;;;;2.05;1.83;;;;;;;;;;5095979;28;20032;-67
2023/09/22 10:12:40;;;;;;;3.25;1.98;;;;;;;;;;5077905;28;20066;-67
2023/09/22 10:15:07;;;;;;;2.25;1.25;;;;;;;;;;5095667;28;20071;-67
2023/09/22 10:17:32;;;;;;;2.85;1.65;;;;;;;;;;5096141;28;20038;-67
2023/09/22 10:20:00;;;;;;;2.20;2.00;;;;;;;;;;5096361;28;20086;-67
2023/09/22 10:22:25;;;;;;;2.95;1.80;;;;;;;;;;5095763;28;20145;-67
2023/09/22 10:25:10;;;;;;;2.75;1.65;;;;;;;;;;5077555;28;20055;-67
2023/09/22 10:27:57;;;;;;;2.15;1.70;;;;;;;;;;5095328;28;20036;-67
2023/09/22 10:30:41;;;;;;;2.00;1.60;;;;;;;;;;5095848;28;20024;-67
2023/09/22 10:33:16;;;;;;;2.42;1.30;;;;;;;;;;5096102;28;20465;-67
2023/09/22 10:35:41;;;;;;;4.25;1.70;;;;;;;;;;5094144;28;20039;-67
2023/09/22 10:38:10;;;;;;;2.30;1.63;;;;;;;;;;5095459;28;20032;-67
2023/09/22 10:40:35;;;;;;;2.05;1.52;;;;;;;;;;5095383;28;20033;-67
2023/09/22 10:43:04;;;;;;;5.65;1.83;;;;;;;;;;5077183;28;20028;-67
2023/09/22 10:45:29;;;;;;;3.33;1.88;;;;;;;;;;5077116;28;20427;-67
2023/09/22 10:47:59;;;;;;;2.55;1.63;;;;;;;;;;5095224;28;20023;-67
2023/09/22 10:50:31;;;;;;;1.40;1.30;;;;;;;;;;5095500;28;20032;-67
2023/09/22 10:53:03;;;;;;;2.38;1.55;;;;;;;;;;5077358;28;20593;-67
2023/09/22 10:55:35;;;;;;;2.03;1.42;;;;;;;;;;5095289;28;20024;-67
2023/09/22 10:58:02;;;;;;;4.18;1.55;;;;;;;;;;5095341;28;20032;-67
2023/09/22 11:00:27;;;;;;;2.10;1.50;;;;;;;;;;5095324;28;20025;-67
2023/09/22 11:02:54;;;;;;;3.03;1.30;;;;;;;;;;5076823;28;20236;-67
2023/09/22 11:05:19;;;;;;;1.13;1.02;;;;;;;;;;5095166;28;20043;-67
2023/09/22 11:07:46;;;;;;;0.80;0.80;;;;;;;;;;5076825;28;20032;-67
2023/09/22 11:10:19;;;;;;;1.63;1.52;;;;;;;;;;5094796;28;20073;-67
2023/09/22 11:12:48;;;;;;;1.27;1.23;;;;;;;;;;5095076;28;20481;-67
2023/09/22 11:15:13;;;;;;;3.83;1.40;;;;;;;;;;5094476;28;20121;-67
2023/09/22 11:17:41;;;;;;;1.40;1.30;;;;;;;;;;5094699;28;20032;-67
2023/09/22 11:20:12;;;;;;;0.82;0.82;;;;;;;;;;5094940;28;20016;-67
2023/09/22 11:22:39;;;;;;;2.05;1.35;;;;;;;;;;5095194;28;20032;-67
2023/09/22 11:25:05;;;;;;;2.35;1.50;;;;;;;;;;5094571;28;20449;-67
2023/09/22 11:27:30;;;;;;;3.42;1.55;;;;;;;;;;5094797;28;20035;-67
2023/09/22 11:30:14;;;;;;;1.63;1.50;;;;;;;;;;5076282;28;20042;-67
2023/09/22 11:32:43;;;;;;;1.15;1.00;;;;;;;;;;5076383;28;20046;-67
2023/09/22 11:35:08;;;;;;;1.15;1.00;;;;;;;;;;5093020;28;20460;-67
2023/09/22 11:37:34;;;;;;;1.95;1.48;;;;;;;;;;5094322;28;20028;-67
2023/09/22 11:39:59;;;;;;;2.13;1.20;;;;;;;;;;5075970;28;20043;-67
2023/09/22 11:42:24;;;;;;;3.28;1.80;;;;;;;;;;5076088;28;20122;-67
2023/09/22 11:44:56;;;;;;;1.85;0.93;;;;;;;;;;5094190;28;20028;-67
2023/09/22 11:47:22;;;;;;;1.63;0.93;;;;;;;;;;5094147;28;20028;-67
2023/09/22 11:49:47;;;;;;;0.73;0.70;;;;;;;;;;5094678;28;20066;-67
2023/09/22 11:52:13;;;;;;;2.85;1.30;;;;;;;;;;5094060;28;20161;-67
2023/09/22 11:54:38;;;;;;;1.33;1.23;;;;;;;;;;5093976;28;20036;-67
2023/09/22 11:57:04;;;;;;;1.67;1.40;;;;;;;;;;5094040;28;20024;-67
2023/09/22 11:59:36;;;;;;;2.08;1.40;;;;;;;;;;5092706;28;20492;-67
2023/09/22 12:02:03;;;;;;;3.67;1.73;;;;;;;;;;5093955;28;20111;-67
2023/09/22 12:04:28;;;;;;;1.05;1.05;;;;;;;;;;5076262;28;20043;-67
2023/09/22 12:06:54;;;;;;;1.42;1.17;;;;;;;;;;5094446;28;20027;-67
2023/09/22 12:09:19;;;;;;;5.22;1.70;;;;;;;;;;5094162;28;20044;-67
2023/09/22 12:11:46;;;;;;;2.47;1.33;;;;;;;;;;5076171;28;20107;-67
2023/09/22 12:14:11;;;;;;;1.10;0.98;;;;;;;;;;5093839;28;20490;-67
2023/09/22 12:16:37;;;;;;;2.15;0.93;;;;;;;;;;5094119;28;20024;-67
2023/09/22 12:19:04;;;;;;;0.77;0.77;;;;;;;;;;5093786;28;20028;-67
2023/09/22 12:21:29;;;;;;;2.72;1.23;;;;;;;;;;5094048;28;20025;-67
2023/09/22 12:23:55;;;;;;;1.25;1.15;;;;;;;;;;5094019;28;20023;-67
2023/09/22 12:26:20;;;;;;;2.13;1.60;;;;;;;;;;5094258;28;20053;-67
2023/09/22 12:28:46;;;;;;;2.63;1.75;;;;;;;;;;5092320;28;20028;-67
2023/09/22 12:31:11;;;;;;;1.10;1.10;;;;;;;;;;5093614;28;20043;-67
2023/09/22 12:33:38;;;;;;;4.60;1.90;;;;;;;;;;5094169;28;20028;-67
2023/09/22 12:36:03;;;;;;;1.63;1.40;;;;;;;;;;5094184;28;20032;-67
2023/09/22 12:38:28;;;;;;;1.65;1.20;;;;;;;;;;5092954;28;20031;-67
2023/09/22 12:40:54;;;;;;;1.38;0.75;;;;;;;;;;5092996;28;20070;-67
2023/09/22 12:43:19;;;;;;;1.17;0.98;;;;;;;;;;5094027;28;20036;-67
2023/09/22 12:45:45;;;;;;;1.67;1.50;;;;;;;;;;5093099;28;20036;-67
2023/09/22 12:48:11;;;;;;;1.38;1.20;;;;;;;;;;5093409;28;20025;-67
2023/09/22 12:50:36;;;;;;;2.85;1.50;;;;;;;;;;5093556;28;20020;-67
2023/09/22 12:53:02;;;;;;;3.92;1.23;;;;;;;;;;5097914;28;20169;-67
2023/09/22 12:55:28;;;;;;;4.10;1.70;;;;;;;;;;5079579;28;20064;-67
2023/09/22 12:57:53;;;;;;;1.10;1.00;;;;;;;;;;5096706;28;20032;-67
2023/09/22 13:00:19;;;;;;;2.17;1.33;;;;;;;;;;5097323;28;20377;-67
2023/09/22 13:02:44;;;;;;;4.20;1.60;;;;;;;;;;5097699;28;20032;-67
2023/09/22 13:05:11;;;;;;;0.65;0.60;;;;;;;;;;5097526;28;20108;-67
2023/09/22 13:07:37;;;;;;;1.95;1.10;;;;;;;;;;5097333;28;20020;-67
2023/09/22 13:10:08;;;;;;;1.75;0.80;;;;;;;;;;5095878;28;20032;-67
2023/09/22 13:12:35;;;;;;;0.82;0.70;;;;;;;;;;5079318;28;20059;-67
2023/09/22 13:15:00;;;;;;;2.25;1.23;;;;;;;;;;5096200;28;20052;-67
2023/09/22 13:17:26;;;;;;;2.10;1.50;;;;;;;;;;5079273;28;20562;-67
2023/09/22 13:19:51;;;;;;;2.90;1.40;;;;;;;;;;5078735;28;20067;-67
2023/09/22 13:22:17;;;;;;;0.38;0.38;;;;;;;;;;5096922;28;20054;-67
2023/09/22 13:24:44;;;;;;;1.02;0.93;;;;;;;;;;5078722;28;20077;-67
2023/09/22 13:27:09;;;;;;;0.93;0.93;;;;;;;;;;5096801;28;20024;-67
2023/09/22 13:29:35;;;;;;;3.53;1.45;;;;;;;;;;5096788;28;20096;-67
2023/09/22 13:32:00;;;;;;;1.42;1.35;;;;;;;;;;5097306;28;20044;-67
2023/09/22 13:34:25;;;;;;;1.85;1.02;;;;;;;;;;5096764;28;20032;-68
2023/09/22 13:36:51;;;;;;;2.47;1.27;;;;;;;;;;5078821;28;20028;-68
2023/09/22 13:39:16;;;;;;;0.90;0.90;;;;;;;;;;5096626;28;20036;-68
2023/09/22 13:41:42;;;;;;;1.83;1.38;;;;;;;;;;5096683;28;20028;-68
2023/09/22 13:44:10;;;;;;;1.58;1.30;;;;;;;;;;5095024;28;20492;-63
2023/09/22 13:46:35;;;;;;;2.38;1.38;;;;;;;;;;5095690;28;20020;-63
2023/09/22 13:49:02;;;;;;;1.27;1.17;;;;;;;;;;5095860;28;20466;-63
2023/09/22 13:51:33;;;;;;;0.50;0.50;;;;;;;;;;5095950;28;20032;-62
2023/09/22 13:53:59;;;;;;;2.47;1.50;;;;;;;;;;5095762;28;20024;-63
2023/09/22 13:56:25;;;;;;;4.32;1.73;;;;;;;;;;5090179;28;20047;-62
2023/09/22 13:58:50;;;;;;;3.50;2.10;;;;;;;;;;5080011;28;20020;-62
2023/09/22 14:01:16;;;;;;;9.93;2.83;;;;;;;;;;5095230;28;20069;-62
2023/09/22 14:03:42;;;;;;;5.25;2.90;;;;;;;;;;5095497;28;20386;-62
2023/09/22 14:06:14;;;;;;;8.05;3.38;;;;;;;;;;5093855;28;20024;-62
2023/09/22 14:08:40;;;;;;;7.18;3.47;;;;;;;;;;5094840;28;20481;-63
2023/09/22 14:11:06;;;;;;;8.23;2.50;;;;;;;;;;5094860;28;20028;-63
2023/09/22 14:13:31;;;;;;;11.95;4.18;;;;;;;;;;5094720;28;20507;-63
2023/09/22 14:15:57;;;;;;;16.80;4.45;;;;;;;;;;5018523;28;20054;-63
2023/09/22 14:18:23;;;;;;;14.07;4.90;;;;;;;;;;5012419;28;20101;-63
2023/09/22 14:20:49;;;;;;;20.48;6.20;;;;;;;;;;5012318;28;20100;-63
2023/09/22 14:23:14;;;;;;;14.63;5.30;;;;;;;;;;5010910;28;20076;-63
2023/09/22 14:25:39;;;;;;;22.13;5.70;;;;;;;;;;5010481;28;20479;-63
2023/09/22 14:28:05;;;;;;;14.65;5.55;;;;;;;;;;5009707;28;20118;-63
2023/09/22 14:30:30;;;;;;;12.20;4.82;;;;;;;;;;5009800;28;20095;-63
2023/09/22 14:32:58;;;;;;;21.85;6.30;;;;;;;;;;5010872;28;20033;-63
2023/09/22 14:35:26;;;;;;;18.50;5.82;;;;;;;;;;5010391;28;20487;-63
2023/09/22 14:37:51;;;;;;;11.98;5.63;;;;;;;;;;5010836;28;20022;-63